Egremont, Massachusetts
Current Conditions -  °F | °C
As of 3:49 PM on Sunday 21 Dec 2014 (Local Time) from KPSF Reporting Station
Overcast Overcast  
Wind Chill: 30°   Ceiling: 2400
Heat Index: 30°   Visibility: 8mi
Dew Point: 27°   Wind: 0mph
Humidity: 86%   Direction: NA
Pressure: 30.23"   Gusts: NA
Location:  42.1779°N, 73.3332°W
Report Text: KPSF 212049Z AUTO 00000KT 8SM BKN024 OVC031 M01/M03 A3023 RMK AO2 SNB09E33 P0000
Loading
Personal Weather Stations






























Interactive Weather Map New forecast layout! Learn more

10-Day Weather Forecast

Advertisements
Track Severe Weather on mobile